Fort Benton (79S)
Fort Benton, MT
Field Elevation: 2869
Lat: 47°50.42N  Long: 110°38.11W
CTAF/Unicom Freq: 122.8000
   
     For Weather-by-Phone, call 406-622-5976
Weather Advisories
9/23/2014 14:20 Z
Altimeter 29.96" Hg
Wind 230° @ 8 KT
Gusts --
Visibility 10 SM
Temperature 14° C (57° F)
Dewpoint 8° C (46° F)
Relative Humidity 67%
Density Altitude --
Condensation Altitude 5,900 feet
  Wind and Runways
Indicated Runway = 23
History
 
 
More Info
All DigiWx sites map
NOAA Forecast
 
Airport IQ 5010
(6S5) Ravalli County
(S71) Edgar Obie
 
about DigiWx
 
FAA Disclaimer: The data displayed is for advisory purposes only and is not to be used for flight planning or operations. For official data, please call 406-622-5976 to hear the current automated AWOS voice message.
  METAR 79S 231420Z AUTO 23008KT 10SM 14/08 A2996